Norris City, Illinois
Current Conditions -  °F | °C
As of 1:55 PM on Saturday 20 Dec 2014 (Local Time) from KCUL Reporting Station
Overcast Overcast  
Wind Chill: 37°   Ceiling: 6500
Heat Index: 40°   Visibility: 10mi
Dew Point: 30°   Wind: 5mph
Humidity: 68%   Direction: 90°E
Pressure: 30.26"   Gusts: NA
Location:  37.98°N, 88.33°W
Report Text: KCUL 201955Z AUTO 09004KT 10SM OVC065 04/M01 A3026 RMK AO2 T00441011
Loading
Personal Weather Stations






























Interactive Weather Map New forecast layout! Learn more

10-Day Weather Forecast

Advertisements
Track Severe Weather on mobile